createdAt,value
2018-12-25T00:00:04.065Z,1027.92
2018-12-25T00:00:30.174Z,1027.92
2018-12-25T00:00:56.275Z,1027.91
2018-12-25T00:01:22.382Z,1027.95
2018-12-25T00:01:48.486Z,1027.93
2018-12-25T00:02:14.591Z,1027.93
2018-12-25T00:02:40.704Z,1027.94
2018-12-25T00:03:06.812Z,1027.95
2018-12-25T00:03:32.913Z,1027.99
2018-12-25T00:03:59.024Z,1027.93
2018-12-25T00:04:25.131Z,1027.97
2018-12-25T00:04:51.238Z,1027.95
2018-12-25T00:05:17.346Z,1027.99
2018-12-25T00:05:43.450Z,1028
2018-12-25T00:06:09.549Z,1028.03
2018-12-25T00:06:35.659Z,1028
2018-12-25T00:07:02.759Z,1028
2018-12-25T00:07:28.859Z,1028.01
2018-12-25T00:07:55.000Z,1027.97
2018-12-25T00:08:21.099Z,1028.02
2018-12-25T00:08:47.207Z,1028.04
2018-12-25T00:09:13.315Z,1027.96
2018-12-25T00:09:39.428Z,1027.97
2018-12-25T00:10:05.531Z,1027.98
2018-12-25T00:10:31.649Z,1028.01
2018-12-25T00:10:57.750Z,1028
2018-12-25T00:11:23.863Z,1027.95
2018-12-25T00:11:49.963Z,1027.95
2018-12-25T00:12:16.065Z,1027.95
2018-12-25T00:12:42.171Z,1027.96
2018-12-25T00:13:08.281Z,1027.91
2018-12-25T00:13:34.379Z,1027.9
2018-12-25T00:14:00.484Z,1027.91
2018-12-25T00:14:26.639Z,1027.9
2018-12-25T00:14:52.745Z,1027.91
2018-12-25T00:15:18.848Z,1027.91
2018-12-25T00:15:44.989Z,1027.87
2018-12-25T00:16:11.094Z,1027.88
2018-12-25T00:16:37.206Z,1027.95
2018-12-25T00:17:03.341Z,1027.94
2018-12-25T00:17:29.448Z,1027.94
2018-12-25T00:17:55.555Z,1027.91
2018-12-25T00:18:21.649Z,1027.92
2018-12-25T00:18:47.757Z,1027.92
2018-12-25T00:19:14.881Z,1027.93
2018-12-25T00:19:40.987Z,1027.93
2018-12-25T00:20:07.095Z,1027.93
2018-12-25T00:20:33.454Z,1027.94
2018-12-25T00:20:59.319Z,1027.89
2018-12-25T00:21:25.442Z,1027.88
2018-12-25T00:21:51.549Z,1027.94
2018-12-25T00:22:17.656Z,1027.96
2018-12-25T00:22:43.768Z,1027.9
2018-12-25T00:23:09.930Z,1027.91
2018-12-25T00:23:36.035Z,1027.93
2018-12-25T00:24:02.143Z,1027.92
2018-12-25T00:24:28.248Z,1027.9
2018-12-25T00:24:54.352Z,1027.88
2018-12-25T00:25:20.455Z,1027.88
2018-12-25T00:25:46.562Z,1027.89
2018-12-25T00:26:12.674Z,1027.91
2018-12-25T00:26:38.779Z,1027.91
2018-12-25T00:27:04.888Z,1027.96
2018-12-25T00:27:30.992Z,1027.94
2018-12-25T00:27:57.104Z,1027.93
2018-12-25T00:28:23.207Z,1027.94
2018-12-25T00:28:49.312Z,1028
2018-12-25T00:29:15.447Z,1027.98
2018-12-25T00:29:41.558Z,1028.01
2018-12-25T00:30:07.693Z,1027.96
2018-12-25T00:30:33.795Z,1027.97
2018-12-25T00:30:59.903Z,1027.96
2018-12-25T00:31:26.010Z,1027.99
2018-12-25T00:31:52.113Z,1027.98
2018-12-25T00:32:18.216Z,1028
2018-12-25T00:32:44.328Z,1028
2018-12-25T00:33:10.432Z,1028.01
2018-12-25T00:33:36.570Z,1027.99
2018-12-25T00:34:02.697Z,1028.02
2018-12-25T00:34:28.827Z,1028.01
2018-12-25T00:34:54.929Z,1028.05
2018-12-25T00:35:21.108Z,1028.03
2018-12-25T00:35:47.216Z,1028.07
2018-12-25T00:36:13.322Z,1028.05
2018-12-25T00:36:39.427Z,1028.03
2018-12-25T00:37:05.566Z,1028.03
2018-12-25T00:37:31.723Z,1028.07
2018-12-25T00:37:57.867Z,1028.11
2018-12-25T00:38:23.969Z,1028.09
2018-12-25T00:38:50.077Z,1028.13
2018-12-25T00:39:16.186Z,1028.09
2018-12-25T00:39:42.287Z,1028.07
2018-12-25T00:40:08.395Z,1028.07
2018-12-25T00:40:34.524Z,1028.1
2018-12-25T00:41:00.625Z,1028.09
2018-12-25T00:41:26.731Z,1028.09
2018-12-25T00:41:52.842Z,1028.07
2018-12-25T00:42:18.948Z,1028.1
2018-12-25T00:42:45.060Z,1028.11
2018-12-25T00:43:11.157Z,1028.11
2018-12-25T00:43:37.262Z,1028.08
2018-12-25T00:44:03.398Z,1028.09
2018-12-25T00:44:29.496Z,1028.08
2018-12-25T00:44:55.607Z,1028.1
2018-12-25T00:45:22.703Z,1028.07
2018-12-25T00:45:48.808Z,1028.1
2018-12-25T00:46:14.947Z,1028.08
2018-12-25T00:46:41.045Z,1028.07
2018-12-25T00:47:07.151Z,1028.07
2018-12-25T00:47:33.254Z,1028.08
2018-12-25T00:47:59.364Z,1028.08
2018-12-25T00:48:25.476Z,1028.08
2018-12-25T00:48:51.577Z,1028.12
2018-12-25T00:49:18.696Z,1028.11
2018-12-25T00:49:44.806Z,1028.09
2018-12-25T00:50:10.910Z,1028.09
2018-12-25T00:50:37.016Z,1028.07
2018-12-25T00:51:03.128Z,1028.11
2018-12-25T00:51:29.251Z,1028.06
2018-12-25T00:51:55.432Z,1028.1
2018-12-25T00:52:21.559Z,1028.09
2018-12-25T00:52:47.662Z,1028.05
2018-12-25T00:53:13.770Z,1028.05
2018-12-25T00:53:39.883Z,1028.07
2018-12-25T00:54:06.010Z,1028.11
2018-12-25T00:54:32.117Z,1028.1
2018-12-25T00:54:58.223Z,1028.1
2018-12-25T00:55:24.330Z,1028.1
2018-12-25T00:55:50.437Z,1028.11
2018-12-25T00:56:16.543Z,1028.12
2018-12-25T00:56:42.645Z,1028.12
2018-12-25T00:57:08.753Z,1028.15
2018-12-25T00:57:34.886Z,1028.13
2018-12-25T00:58:00.996Z,1028.14
2018-12-25T00:58:27.102Z,1028.14
2018-12-25T00:58:53.233Z,1028.19
2018-12-25T00:59:19.334Z,1028.17
2018-12-25T00:59:45.439Z,1028.16
2018-12-25T01:00:11.544Z,1028.15
2018-12-25T01:00:37.643Z,1028.21
2018-12-25T01:01:03.790Z,1028.19
2018-12-25T01:01:29.895Z,1028.19
2018-12-25T01:01:55.999Z,1028.19
2018-12-25T01:02:23.091Z,1028.2
2018-12-25T01:02:49.198Z,1028.23
2018-12-25T01:03:15.306Z,1028.2
2018-12-25T01:03:41.412Z,1028.19
2018-12-25T01:04:07.518Z,1028.22
2018-12-25T01:04:33.630Z,1028.19
2018-12-25T01:04:59.726Z,1028.2
2018-12-25T01:05:25.837Z,1028.16
2018-12-25T01:05:51.941Z,1028.18
2018-12-25T01:06:18.049Z,1028.18
2018-12-25T01:06:44.222Z,1028.11
2018-12-25T01:07:10.378Z,1028.16
2018-12-25T01:07:36.477Z,1028.19
2018-12-25T01:08:02.579Z,1028.17
2018-12-25T01:08:28.687Z,1028.17
2018-12-25T01:08:54.794Z,1028.17
2018-12-25T01:09:20.891Z,1028.18
2018-12-25T01:09:46.997Z,1028.16
2018-12-25T01:10:13.109Z,1028.17
2018-12-25T01:10:39.240Z,1028.16
2018-12-25T01:11:05.336Z,1028.16
2018-12-25T01:11:31.446Z,1028.16
2018-12-25T01:11:57.552Z,1028.13
2018-12-25T01:12:23.649Z,1028.14
2018-12-25T01:12:49.764Z,1028.15
2018-12-25T01:13:15.865Z,1028.14
2018-12-25T01:13:41.965Z,1028.13
2018-12-25T01:14:08.069Z,1028.15
2018-12-25T01:14:34.172Z,1028.15
2018-12-25T01:15:00.310Z,1028.14
2018-12-25T01:15:26.431Z,1028.13
2018-12-25T01:15:52.531Z,1028.13
2018-12-25T01:16:18.644Z,1028.11
2018-12-25T01:16:44.751Z,1028.14
2018-12-25T01:17:10.851Z,1028.07
2018-12-25T01:17:36.959Z,1028.1
2018-12-25T01:18:03.060Z,1028.04
2018-12-25T01:18:29.175Z,1028.06
2018-12-25T01:18:55.278Z,1028.07
2018-12-25T01:19:23.365Z,1028.07
2018-12-25T01:19:49.520Z,1028.06
2018-12-25T01:20:15.587Z,1028.05
2018-12-25T01:20:41.687Z,1028.04
2018-12-25T01:21:07.795Z,1028.04
2018-12-25T01:21:33.896Z,1028.05
2018-12-25T01:21:59.999Z,1028.09
2018-12-25T01:22:26.103Z,1028.03
2018-12-25T01:22:52.206Z,1028.03
2018-12-25T01:23:18.317Z,1028
2018-12-25T01:23:44.416Z,1028
2018-12-25T01:24:10.522Z,1028.05
2018-12-25T01:24:36.649Z,1028.05
2018-12-25T01:25:02.756Z,1028.08
2018-12-25T01:25:28.864Z,1028.06
2018-12-25T01:25:54.970Z,1028.08
2018-12-25T01:26:21.074Z,1028.07
2018-12-25T01:26:47.200Z,1028.05
2018-12-25T01:27:13.335Z,1028.04
2018-12-25T01:27:39.440Z,1028.06
2018-12-25T01:28:05.543Z,1028.1
2018-12-25T01:28:31.656Z,1028.05
2018-12-25T01:28:57.756Z,1028.07
2018-12-25T01:29:23.867Z,1028.09
2018-12-25T01:29:49.972Z,1028.06
2018-12-25T01:30:16.074Z,1028.08
2018-12-25T01:30:42.174Z,1028.07
2018-12-25T01:31:08.285Z,1028.11
2018-12-25T01:31:34.379Z,1028.12
2018-12-25T01:32:00.487Z,1028.08
2018-12-25T01:32:26.595Z,1028.07
2018-12-25T01:32:52.703Z,1028.08
2018-12-25T01:33:18.806Z,1028.11
2018-12-25T01:33:44.924Z,1028.09
2018-12-25T01:34:11.071Z,1028.06
2018-12-25T01:34:37.186Z,1028.04
2018-12-25T01:35:03.297Z,1028.07
2018-12-25T01:35:29.438Z,1028.07
2018-12-25T01:35:55.546Z,1028.05
2018-12-25T01:36:21.653Z,1028.1
2018-12-25T01:36:47.759Z,1028.09
2018-12-25T01:37:13.868Z,1028.08
2018-12-25T01:37:39.973Z,1028.08
2018-12-25T01:38:06.081Z,1028.08
2018-12-25T01:38:32.194Z,1028.11
2018-12-25T01:38:58.296Z,1028.07
2018-12-25T01:39:24.402Z,1028.08
2018-12-25T01:39:50.529Z,1028.09
2018-12-25T01:40:16.641Z,1028.09
2018-12-25T01:40:42.800Z,1028.1
2018-12-25T01:41:08.907Z,1028.12
2018-12-25T01:41:35.019Z,1028.13
2018-12-25T01:42:01.120Z,1028.14
2018-12-25T01:42:27.255Z,1028.11
2018-12-25T01:42:53.363Z,1028.14
2018-12-25T01:43:19.498Z,1028.12
2018-12-25T01:43:45.634Z,1028.13
2018-12-25T01:44:11.737Z,1028.14
2018-12-25T01:44:37.841Z,1028.16
2018-12-25T01:45:03.940Z,1028.13
2018-12-25T01:45:30.043Z,1028.09
2018-12-25T01:45:56.147Z,1028.17
2018-12-25T01:46:22.252Z,1028.16
2018-12-25T01:46:48.362Z,1028.14
2018-12-25T01:47:14.503Z,1028.14
2018-12-25T01:47:40.609Z,1028.18
2018-12-25T01:48:06.708Z,1028.21
2018-12-25T01:48:32.845Z,1028.18
2018-12-25T01:48:58.945Z,1028.18
2018-12-25T01:49:31.678Z,1028.15
2018-12-25T01:49:52.183Z,1028.23
2018-12-25T01:50:18.286Z,1028.21
2018-12-25T01:50:44.388Z,1028.22
2018-12-25T01:51:10.498Z,1028.19
2018-12-25T01:51:36.625Z,1028.22
2018-12-25T01:52:02.733Z,1028.2
2018-12-25T01:52:28.836Z,1028.22
2018-12-25T01:52:54.938Z,1028.22
2018-12-25T01:53:21.043Z,1028.21
2018-12-25T01:53:47.146Z,1028.18
2018-12-25T01:54:13.243Z,1028.21
2018-12-25T01:54:39.347Z,1028.17
2018-12-25T01:55:05.479Z,1028.19
2018-12-25T01:55:31.582Z,1028.22
2018-12-25T01:55:57.688Z,1028.21
2018-12-25T01:56:23.794Z,1028.2
2018-12-25T01:56:49.909Z,1028.21
2018-12-25T01:57:16.011Z,1028.22
2018-12-25T01:57:42.120Z,1028.17
2018-12-25T01:58:08.218Z,1028.19
2018-12-25T01:58:34.330Z,1028.21
2018-12-25T01:59:00.436Z,1028.23
2018-12-25T01:59:26.540Z,1028.24
2018-12-25T01:59:52.644Z,1028.22
2018-12-25T02:00:18.750Z,1028.25
2018-12-25T02:00:44.850Z,1028.29
2018-12-25T02:01:10.963Z,1028.3
2018-12-25T02:01:37.068Z,1028.3
2018-12-25T02:02:03.172Z,1028.32
2018-12-25T02:02:29.281Z,1028.3
2018-12-25T02:02:55.382Z,1028.28
2018-12-25T02:03:21.487Z,1028.32
2018-12-25T02:03:47.624Z,1028.29
2018-12-25T02:04:13.734Z,1028.33
2018-12-25T02:04:39.861Z,1028.3
2018-12-25T02:05:05.970Z,1028.31
2018-12-25T02:05:32.107Z,1028.35
2018-12-25T02:05:58.211Z,1028.34
2018-12-25T02:06:24.312Z,1028.37
2018-12-25T02:06:50.422Z,1028.37
2018-12-25T02:07:16.525Z,1028.36
2018-12-25T02:07:42.629Z,1028.32
2018-12-25T02:08:08.776Z,1028.32
2018-12-25T02:08:34.883Z,1028.32
2018-12-25T02:09:01.015Z,1028.34
2018-12-25T02:09:27.118Z,1028.38
2018-12-25T02:09:53.221Z,1028.33
2018-12-25T02:10:19.328Z,1028.39
2018-12-25T02:10:45.446Z,1028.36
2018-12-25T02:11:12.586Z,1028.37
2018-12-25T02:11:38.693Z,1028.39
2018-12-25T02:12:04.795Z,1028.39
2018-12-25T02:12:30.922Z,1028.36
2018-12-25T02:12:57.052Z,1028.38
2018-12-25T02:13:23.154Z,1028.38
2018-12-25T02:13:49.265Z,1028.36
2018-12-25T02:14:15.372Z,1028.36
2018-12-25T02:14:41.476Z,1028.34
2018-12-25T02:15:07.585Z,1028.36
2018-12-25T02:15:33.693Z,1028.35
2018-12-25T02:15:59.798Z,1028.35
2018-12-25T02:16:25.913Z,1028.34
2018-12-25T02:16:52.030Z,1028.37
2018-12-25T02:17:18.139Z,1028.37
2018-12-25T02:17:44.303Z,1028.36
2018-12-25T02:18:10.440Z,1028.35
2018-12-25T02:18:36.544Z,1028.33
2018-12-25T02:19:02.649Z,1028.36
2018-12-25T02:19:28.756Z,1028.35
2018-12-25T02:19:55.880Z,1028.35
2018-12-25T02:20:21.989Z,1028.35
2018-12-25T02:20:48.124Z,1028.3
2018-12-25T02:21:14.234Z,1028.31
2018-12-25T02:21:40.362Z,1028.29
2018-12-25T02:22:06.475Z,1028.29
2018-12-25T02:22:32.602Z,1028.28
2018-12-25T02:22:58.710Z,1028.26
2018-12-25T02:23:24.808Z,1028.3
2018-12-25T02:23:50.912Z,1028.25
2018-12-25T02:24:17.021Z,1028.27
2018-12-25T02:24:43.126Z,1028.31
2018-12-25T02:25:09.232Z,1028.31
2018-12-25T02:25:35.343Z,1028.29
2018-12-25T02:26:01.442Z,1028.27
2018-12-25T02:26:27.544Z,1028.28
2018-12-25T02:26:53.680Z,1028.27
2018-12-25T02:27:19.812Z,1028.27
2018-12-25T02:27:45.921Z,1028.29
2018-12-25T02:28:12.022Z,1028.25
2018-12-25T02:28:38.132Z,1028.23
2018-12-25T02:29:04.240Z,1028.23
2018-12-25T02:29:30.339Z,1028.26
2018-12-25T02:29:56.441Z,1028.28
2018-12-25T02:30:22.634Z,1028.27
2018-12-25T02:30:48.735Z,1028.29
2018-12-25T02:31:14.844Z,1028.24
2018-12-25T02:31:40.951Z,1028.2
2018-12-25T02:32:07.086Z,1028.2
2018-12-25T02:32:33.230Z,1028.23
2018-12-25T02:32:59.324Z,1028.23
2018-12-25T02:33:25.431Z,1028.2
2018-12-25T02:33:51.587Z,1028.23
2018-12-25T02:34:17.690Z,1028.23
2018-12-25T02:34:43.822Z,1028.22
2018-12-25T02:35:09.927Z,1028.2
2018-12-25T02:35:36.036Z,1028.21
2018-12-25T02:36:02.196Z,1028.18
2018-12-25T02:36:28.359Z,1028.12
2018-12-25T02:36:54.489Z,1028.1
2018-12-25T02:37:20.631Z,1028.17
2018-12-25T02:37:46.732Z,1028.15
2018-12-25T02:38:12.840Z,1028.11
2018-12-25T02:38:38.966Z,1028.12
2018-12-25T02:39:05.067Z,1028.1
2018-12-25T02:39:31.178Z,1028.14
2018-12-25T02:39:57.343Z,1028.13
2018-12-25T02:40:23.479Z,1028.11
2018-12-25T02:40:49.638Z,1028.08
2018-12-25T02:41:15.798Z,1028.08
2018-12-25T02:41:41.931Z,1028.1
2018-12-25T02:42:08.063Z,1028.13
2018-12-25T02:42:34.169Z,1028.19
2018-12-25T02:43:00.284Z,1028.13
2018-12-25T02:43:26.416Z,1028.22
2018-12-25T02:43:52.521Z,1028.21
2018-12-25T02:44:18.620Z,1028.19
2018-12-25T02:44:44.737Z,1028.18
2018-12-25T02:45:10.844Z,1028.16
2018-12-25T02:45:36.944Z,1028.13
2018-12-25T02:46:03.048Z,1028.16
2018-12-25T02:46:29.160Z,1028.13
2018-12-25T02:46:55.290Z,1028.13
2018-12-25T02:47:21.419Z,1028.12
2018-12-25T02:47:47.523Z,1028.1
2018-12-25T02:48:13.653Z,1028.11
2018-12-25T02:48:39.877Z,1028.07
2018-12-25T02:49:05.981Z,1028.09
2018-12-25T02:49:33.073Z,1028.04
2018-12-25T02:50:00.199Z,1028.02
2018-12-25T02:50:26.297Z,1028.05
2018-12-25T02:50:52.408Z,1028.09
2018-12-25T02:51:18.512Z,1028
2018-12-25T02:51:44.636Z,1027.99
2018-12-25T02:52:10.777Z,1028.01
2018-12-25T02:52:36.892Z,1027.99
2018-12-25T02:53:02.993Z,1027.99
2018-12-25T02:53:29.118Z,1028
2018-12-25T02:53:55.257Z,1027.96
2018-12-25T02:54:21.424Z,1027.96
2018-12-25T02:54:47.544Z,1027.94
2018-12-25T02:55:13.680Z,1027.96
2018-12-25T02:55:39.813Z,1027.98
2018-12-25T02:56:05.945Z,1027.95
2018-12-25T02:56:32.079Z,1027.97
2018-12-25T02:56:58.192Z,1027.98
2018-12-25T02:57:24.313Z,1027.98
2018-12-25T02:57:50.427Z,1027.93
2018-12-25T02:58:16.545Z,1027.95
2018-12-25T02:58:42.704Z,1027.98
2018-12-25T02:59:08.876Z,1027.96
2018-12-25T02:59:35.008Z,1027.93
2018-12-25T03:00:01.113Z,1027.93
2018-12-25T03:00:27.221Z,1027.9
2018-12-25T03:00:53.379Z,1027.9
2018-12-25T03:01:19.548Z,1027.92
2018-12-25T03:01:45.650Z,1027.89
2018-12-25T03:02:11.757Z,1027.87
2018-12-25T03:02:37.886Z,1027.92
2018-12-25T03:03:04.052Z,1027.93
2018-12-25T03:03:30.157Z,1027.95
2018-12-25T03:03:56.274Z,1027.95
2018-12-25T03:04:22.380Z,1027.91
2018-12-25T03:04:48.483Z,1027.89
2018-12-25T03:05:14.584Z,1027.92
2018-12-25T03:05:40.763Z,1027.89
2018-12-25T03:06:06.866Z,1027.86
2018-12-25T03:06:32.972Z,1027.86
2018-12-25T03:06:59.080Z,1027.87
2018-12-25T03:07:25.180Z,1027.92
2018-12-25T03:07:51.282Z,1027.88
2018-12-25T03:08:17.444Z,1027.86
2018-12-25T03:08:43.577Z,1027.89
2018-12-25T03:09:09.701Z,1027.92
2018-12-25T03:09:35.808Z,1027.87
2018-12-25T03:10:01.909Z,1027.85
2018-12-25T03:10:28.040Z,1027.89
2018-12-25T03:10:54.182Z,1027.87
2018-12-25T03:11:20.348Z,1027.87
2018-12-25T03:11:46.452Z,1027.87
2018-12-25T03:12:12.619Z,1027.9
2018-12-25T03:12:38.751Z,1028
2018-12-25T03:13:04.952Z,1027.96
2018-12-25T03:13:31.082Z,1027.96
2018-12-25T03:13:57.249Z,1028
2018-12-25T03:14:23.407Z,1028.03
2018-12-25T03:14:49.506Z,1027.98
2018-12-25T03:15:15.632Z,1027.88
2018-12-25T03:15:41.738Z,1027.98
2018-12-25T03:16:07.838Z,1027.92
2018-12-25T03:16:33.976Z,1027.98
2018-12-25T03:17:00.138Z,1028
2018-12-25T03:17:26.273Z,1027.98
2018-12-25T03:17:52.406Z,1028.01
2018-12-25T03:18:18.502Z,1028
2018-12-25T03:18:44.615Z,1027.96
2018-12-25T03:19:10.712Z,1027.93
2018-12-25T03:19:36.820Z,1027.9
2018-12-25T03:20:04.902Z,1027.88
2018-12-25T03:20:31.009Z,1027.89
2018-12-25T03:20:57.114Z,1027.86
2018-12-25T03:21:23.375Z,1027.82
2018-12-25T03:21:49.465Z,1027.77
2018-12-25T03:22:15.604Z,1027.77
2018-12-25T03:22:41.709Z,1027.76
2018-12-25T03:23:07.881Z,1027.78
2018-12-25T03:23:34.014Z,1027.75
2018-12-25T03:24:00.179Z,1027.69
2018-12-25T03:24:26.309Z,1027.7
2018-12-25T03:24:52.477Z,1027.71
2018-12-25T03:25:18.606Z,1027.73
2018-12-25T03:25:44.716Z,1027.73
2018-12-25T03:26:10.854Z,1027.69
2018-12-25T03:26:37.110Z,1027.7
2018-12-25T03:27:03.163Z,1027.69
2018-12-25T03:27:29.267Z,1027.7
2018-12-25T03:27:55.408Z,1027.72
2018-12-25T03:28:21.519Z,1027.69
2018-12-25T03:28:47.626Z,1027.67
2018-12-25T03:29:13.735Z,1027.65
2018-12-25T03:29:39.850Z,1027.67
2018-12-25T03:30:05.983Z,1027.64
2018-12-25T03:30:32.153Z,1027.65
2018-12-25T03:30:58.279Z,1027.68
2018-12-25T03:31:24.440Z,1027.69
2018-12-25T03:31:50.634Z,1027.65
2018-12-25T03:32:16.810Z,1027.67
2018-12-25T03:32:42.968Z,1027.68
2018-12-25T03:33:09.128Z,1027.69
2018-12-25T03:33:35.319Z,1027.66
2018-12-25T03:34:01.417Z,1027.65
2018-12-25T03:34:27.527Z,1027.71
2018-12-25T03:34:53.632Z,1027.65
2018-12-25T03:35:19.740Z,1027.66
2018-12-25T03:35:45.843Z,1027.65
2018-12-25T03:36:11.984Z,1027.65
2018-12-25T03:36:38.083Z,1027.63
2018-12-25T03:37:04.191Z,1027.66
2018-12-25T03:37:30.321Z,1027.64
2018-12-25T03:37:56.484Z,1027.62
2018-12-25T03:38:22.642Z,1027.62
2018-12-25T03:38:48.810Z,1027.64
2018-12-25T03:39:14.945Z,1027.65
2018-12-25T03:39:41.055Z,1027.63
2018-12-25T03:40:07.188Z,1027.64
2018-12-25T03:40:33.321Z,1027.65
2018-12-25T03:40:59.447Z,1027.64
2018-12-25T03:41:25.551Z,1027.63
2018-12-25T03:41:51.662Z,1027.62
2018-12-25T03:42:17.796Z,1027.63
2018-12-25T03:42:43.932Z,1027.62
2018-12-25T03:43:10.043Z,1027.65
2018-12-25T03:43:36.146Z,1027.61
2018-12-25T03:44:02.263Z,1027.62
2018-12-25T03:44:28.353Z,1027.62
2018-12-25T03:44:54.460Z,1027.6
2018-12-25T03:45:20.585Z,1027.6
2018-12-25T03:45:46.698Z,1027.59
2018-12-25T03:46:12.827Z,1027.59
2018-12-25T03:46:38.934Z,1027.58
2018-12-25T03:47:05.096Z,1027.55
2018-12-25T03:47:31.200Z,1027.55
2018-12-25T03:47:57.342Z,1027.62
2018-12-25T03:48:23.472Z,1027.64
2018-12-25T03:48:49.676Z,1027.6
2018-12-25T03:49:15.778Z,1027.64
2018-12-25T03:49:41.940Z,1027.65
2018-12-25T03:50:10.731Z,1027.65
2018-12-25T03:50:35.196Z,1027.66
2018-12-25T03:51:01.324Z,1027.61
2018-12-25T03:51:27.432Z,1027.64
2018-12-25T03:51:53.620Z,1027.61
2018-12-25T03:52:19.726Z,1027.61
2018-12-25T03:52:45.829Z,1027.6
2018-12-25T03:53:11.939Z,1027.63
2018-12-25T03:53:38.046Z,1027.61
2018-12-25T03:54:04.172Z,1027.59
2018-12-25T03:54:30.280Z,1027.58
2018-12-25T03:54:56.375Z,1027.62
2018-12-25T03:55:22.505Z,1027.6
2018-12-25T03:55:48.689Z,1027.59
2018-12-25T03:56:14.857Z,1027.56
2018-12-25T03:56:40.962Z,1027.55
2018-12-25T03:57:07.071Z,1027.58
2018-12-25T03:57:33.199Z,1027.55
2018-12-25T03:57:59.311Z,1027.53
2018-12-25T03:58:25.441Z,1027.58
2018-12-25T03:58:51.574Z,1027.61
2018-12-25T03:59:17.677Z,1027.58
2018-12-25T03:59:43.786Z,1027.6
2018-12-25T04:00:09.889Z,1027.56
2018-12-25T04:00:36.002Z,1027.54
2018-12-25T04:01:02.102Z,1027.6
2018-12-25T04:01:28.208Z,1027.59
2018-12-25T04:01:54.371Z,1027.62
2018-12-25T04:02:20.548Z,1027.63
2018-12-25T04:02:46.657Z,1027.6
2018-12-25T04:03:12.807Z,1027.59
2018-12-25T04:03:38.895Z,1027.62
2018-12-25T04:04:05.028Z,1027.56
2018-12-25T04:04:31.142Z,1027.55
2018-12-25T04:04:57.350Z,1027.57
2018-12-25T04:05:23.455Z,1027.54
2018-12-25T04:05:49.556Z,1027.56
2018-12-25T04:06:15.749Z,1027.55
2018-12-25T04:06:41.851Z,1027.55
2018-12-25T04:07:07.963Z,1027.55
2018-12-25T04:07:34.111Z,1027.6
2018-12-25T04:08:00.246Z,1027.6
2018-12-25T04:08:26.379Z,1027.59
2018-12-25T04:08:52.543Z,1027.64
2018-12-25T04:09:18.685Z,1027.62
2018-12-25T04:09:44.811Z,1027.64
2018-12-25T04:10:10.919Z,1027.61
2018-12-25T04:10:37.023Z,1027.62
2018-12-25T04:11:03.132Z,1027.6
2018-12-25T04:11:29.235Z,1027.63
2018-12-25T04:11:55.360Z,1027.65
2018-12-25T04:12:21.465Z,1027.62
2018-12-25T04:12:47.575Z,1027.66
2018-12-25T04:13:13.676Z,1027.63
2018-12-25T04:13:39.793Z,1027.63
2018-12-25T04:14:05.942Z,1027.66
2018-12-25T04:14:32.047Z,1027.64
2018-12-25T04:14:58.211Z,1027.64
2018-12-25T04:15:24.341Z,1027.62
2018-12-25T04:15:50.469Z,1027.61
2018-12-25T04:16:16.618Z,1027.59
2018-12-25T04:16:42.772Z,1027.63
2018-12-25T04:17:08.935Z,1027.61
2018-12-25T04:17:35.035Z,1027.65
2018-12-25T04:18:01.139Z,1027.62
2018-12-25T04:18:27.276Z,1027.67
2018-12-25T04:18:53.375Z,1027.69
2018-12-25T04:19:19.484Z,1027.67
2018-12-25T04:19:45.615Z,1027.69
2018-12-25T04:20:19.633Z,1027.67
2018-12-25T04:20:39.999Z,1027.65
2018-12-25T04:21:06.150Z,1027.7
2018-12-25T04:21:32.259Z,1027.7
2018-12-25T04:21:58.392Z,1027.69
2018-12-25T04:22:24.499Z,1027.68
2018-12-25T04:22:50.606Z,1027.66
2018-12-25T04:23:16.713Z,1027.67
2018-12-25T04:23:42.818Z,1027.65
2018-12-25T04:24:08.918Z,1027.63
2018-12-25T04:24:35.062Z,1027.65
2018-12-25T04:25:01.171Z,1027.66
2018-12-25T04:25:27.298Z,1027.64
2018-12-25T04:25:53.444Z,1027.66
2018-12-25T04:26:19.546Z,1027.63
2018-12-25T04:26:45.680Z,1027.63
2018-12-25T04:27:11.777Z,1027.63
2018-12-25T04:27:37.918Z,1027.64
2018-12-25T04:28:04.017Z,1027.64
2018-12-25T04:28:30.125Z,1027.61
2018-12-25T04:28:56.232Z,1027.61
2018-12-25T04:29:22.364Z,1027.6
2018-12-25T04:29:48.465Z,1027.59
2018-12-25T04:30:14.573Z,1027.61
2018-12-25T04:30:40.672Z,1027.6
2018-12-25T04:31:06.780Z,1027.58
2018-12-25T04:31:32.885Z,1027.6
2018-12-25T04:31:58.992Z,1027.59
2018-12-25T04:32:25.088Z,1027.57
2018-12-25T04:32:51.190Z,1027.58
2018-12-25T04:33:17.324Z,1027.58
2018-12-25T04:33:43.458Z,1027.57
2018-12-25T04:34:09.570Z,1027.59
2018-12-25T04:34:35.671Z,1027.58
2018-12-25T04:35:01.803Z,1027.6
2018-12-25T04:35:27.934Z,1027.62
2018-12-25T04:35:54.042Z,1027.6
2018-12-25T04:36:20.164Z,1027.6
2018-12-25T04:36:46.269Z,1027.63
2018-12-25T04:37:12.381Z,1027.61
2018-12-25T04:37:38.512Z,1027.62
2018-12-25T04:38:04.615Z,1027.6
2018-12-25T04:38:30.783Z,1027.65
2018-12-25T04:38:56.891Z,1027.62
2018-12-25T04:39:23.036Z,1027.64
2018-12-25T04:39:49.199Z,1027.63
2018-12-25T04:40:15.334Z,1027.6
2018-12-25T04:40:41.436Z,1027.56
2018-12-25T04:41:07.615Z,1027.62
2018-12-25T04:41:33.748Z,1027.62
2018-12-25T04:41:59.883Z,1027.6
2018-12-25T04:42:26.018Z,1027.6
2018-12-25T04:42:52.118Z,1027.62
2018-12-25T04:43:18.224Z,1027.58
2018-12-25T04:43:44.412Z,1027.62
2018-12-25T04:44:10.465Z,1027.59
2018-12-25T04:44:36.570Z,1027.56
2018-12-25T04:45:02.681Z,1027.58
2018-12-25T04:45:28.792Z,1027.61
2018-12-25T04:45:54.893Z,1027.59
2018-12-25T04:46:21.002Z,1027.59
2018-12-25T04:46:47.107Z,1027.64
2018-12-25T04:47:13.242Z,1027.61
2018-12-25T04:47:39.388Z,1027.6
2018-12-25T04:48:05.485Z,1027.63
2018-12-25T04:48:31.597Z,1027.66
2018-12-25T04:48:57.696Z,1027.61
2018-12-25T04:49:23.834Z,1027.61
2018-12-25T04:49:49.962Z,1027.6
2018-12-25T04:50:16.067Z,1027.61
2018-12-25T04:50:44.155Z,1027.63
2018-12-25T04:51:10.255Z,1027.62
2018-12-25T04:51:36.391Z,1027.6
2018-12-25T04:52:02.555Z,1027.58
2018-12-25T04:52:28.659Z,1027.59
2018-12-25T04:52:54.774Z,1027.59
2018-12-25T04:53:20.874Z,1027.6
2018-12-25T04:53:47.016Z,1027.59
2018-12-25T04:54:13.151Z,1027.56
2018-12-25T04:54:39.253Z,1027.59
2018-12-25T04:55:05.434Z,1027.58
2018-12-25T04:55:31.545Z,1027.59
2018-12-25T04:55:57.644Z,1027.57
2018-12-25T04:56:23.753Z,1027.53
2018-12-25T04:56:49.883Z,1027.57
2018-12-25T04:57:16.012Z,1027.55
2018-12-25T04:57:42.117Z,1027.55
2018-12-25T04:58:08.226Z,1027.54
2018-12-25T04:58:34.332Z,1027.55
2018-12-25T04:59:00.444Z,1027.55
2018-12-25T04:59:26.542Z,1027.57
2018-12-25T04:59:52.645Z,1027.61
2018-12-25T05:00:18.752Z,1027.56
2018-12-25T05:00:44.857Z,1027.56
2018-12-25T05:01:10.991Z,1027.58
2018-12-25T05:01:37.095Z,1027.58
2018-12-25T05:02:03.234Z,1027.61
2018-12-25T05:02:29.338Z,1027.62
2018-12-25T05:02:55.451Z,1027.63
2018-12-25T05:03:21.554Z,1027.63
2018-12-25T05:03:47.684Z,1027.64
2018-12-25T05:04:13.812Z,1027.67
2018-12-25T05:04:39.948Z,1027.61
2018-12-25T05:05:06.051Z,1027.61
2018-12-25T05:05:32.153Z,1027.57
2018-12-25T05:05:58.262Z,1027.62
2018-12-25T05:06:24.389Z,1027.57
2018-12-25T05:06:50.527Z,1027.57
2018-12-25T05:07:16.626Z,1027.61
2018-12-25T05:07:42.736Z,1027.61
2018-12-25T05:08:08.847Z,1027.58
2018-12-25T05:08:34.950Z,1027.64
2018-12-25T05:09:01.057Z,1027.64
2018-12-25T05:09:27.190Z,1027.62
2018-12-25T05:09:53.288Z,1027.68
2018-12-25T05:10:19.427Z,1027.65
2018-12-25T05:10:45.532Z,1027.66
2018-12-25T05:11:11.648Z,1027.71
2018-12-25T05:11:37.788Z,1027.69
2018-12-25T05:12:03.893Z,1027.69
2018-12-25T05:12:29.997Z,1027.66
2018-12-25T05:12:56.136Z,1027.69
2018-12-25T05:13:22.241Z,1027.68
2018-12-25T05:13:48.353Z,1027.71
2018-12-25T05:14:14.456Z,1027.67
2018-12-25T05:14:40.557Z,1027.68
2018-12-25T05:15:06.688Z,1027.66
2018-12-25T05:15:32.794Z,1027.67
2018-12-25T05:15:58.929Z,1027.69
2018-12-25T05:16:25.041Z,1027.68
2018-12-25T05:16:51.140Z,1027.69
2018-12-25T05:17:17.277Z,1027.7
2018-12-25T05:17:43.372Z,1027.73